sensor_id;sensor_type;location;lat;lon;timestamp;temperature;humidity
64718;DHT22;62506;46.070;14.492;2023-08-07T00:01:30;24.00;61.10
64718;DHT22;62506;46.070;14.492;2023-08-07T00:03:56;24.00;61.10
64718;DHT22;62506;46.070;14.492;2023-08-07T00:06:21;24.10;61.10
64718;DHT22;62506;46.070;14.492;2023-08-07T00:08:47;24.10;61.10
64718;DHT22;62506;46.070;14.492;2023-08-07T00:11:12;24.00;61.10
64718;DHT22;62506;46.070;14.492;2023-08-07T00:13:38;24.10;61.10
64718;DHT22;62506;46.070;14.492;2023-08-07T00:16:04;24.10;61.10
64718;DHT22;62506;46.070;14.492;2023-08-07T00:18:29;24.10;61.10
64718;DHT22;62506;46.070;14.492;2023-08-07T00:20:55;24.00;61.00
64718;DHT22;62506;46.070;14.492;2023-08-07T00:23:20;24.00;61.00
64718;DHT22;62506;46.070;14.492;2023-08-07T00:25:46;24.10;61.10
64718;DHT22;62506;46.070;14.492;2023-08-07T00:28:11;24.10;61.10
64718;DHT22;62506;46.070;14.492;2023-08-07T00:30:37;24.00;61.00
64718;DHT22;62506;46.070;14.492;2023-08-07T00:33:02;24.10;61.10
64718;DHT22;62506;46.070;14.492;2023-08-07T00:35:28;24.10;61.10
64718;DHT22;62506;46.070;14.492;2023-08-07T00:37:54;24.10;61.10
64718;DHT22;62506;46.070;14.492;2023-08-07T00:40:19;24.00;61.00
64718;DHT22;62506;46.070;14.492;2023-08-07T00:42:45;24.10;61.10
64718;DHT22;62506;46.070;14.492;2023-08-07T00:45:10;24.10;61.00
64718;DHT22;62506;46.070;14.492;2023-08-07T00:47:36;24.00;61.00
64718;DHT22;62506;46.070;14.492;2023-08-07T00:50:03;24.00;60.90
64718;DHT22;62506;46.070;14.492;2023-08-07T00:52:29;24.00;61.10
64718;DHT22;62506;46.070;14.492;2023-08-07T00:54:55;24.00;61.10
64718;DHT22;62506;46.070;14.492;2023-08-07T00:57:20;24.00;61.00
64718;DHT22;62506;46.070;14.492;2023-08-07T00:59:48;24.00;61.00
64718;DHT22;62506;46.070;14.492;2023-08-07T01:02:13;24.00;60.90
64718;DHT22;62506;46.070;14.492;2023-08-07T01:04:40;24.00;60.80
64718;DHT22;62506;46.070;14.492;2023-08-07T01:07:06;24.00;60.90
64718;DHT22;62506;46.070;14.492;2023-08-07T01:09:31;24.00;60.90
64718;DHT22;62506;46.070;14.492;2023-08-07T01:14:40;24.00;60.90
64718;DHT22;62506;46.070;14.492;2023-08-07T01:17:09;24.00;60.80
64718;DHT22;62506;46.070;14.492;2023-08-07T01:19:36;24.00;60.80
64718;DHT22;62506;46.070;14.492;2023-08-07T01:22:08;24.00;60.30
64718;DHT22;62506;46.070;14.492;2023-08-07T01:24:34;24.00;60.50
64718;DHT22;62506;46.070;14.492;2023-08-07T01:27:02;24.00;60.60
64718;DHT22;62506;46.070;14.492;2023-08-07T01:29:32;24.00;60.60
64718;DHT22;62506;46.070;14.492;2023-08-07T01:32:00;24.00;60.80
64718;DHT22;62506;46.070;14.492;2023-08-07T01:34:28;24.00;60.70
64718;DHT22;62506;46.070;14.492;2023-08-07T01:36:53;24.00;60.60
64718;DHT22;62506;46.070;14.492;2023-08-07T01:39:19;24.00;60.60
64718;DHT22;62506;46.070;14.492;2023-08-07T01:41:46;24.00;60.60
64718;DHT22;62506;46.070;14.492;2023-08-07T01:44:12;24.00;60.60
64718;DHT22;62506;46.070;14.492;2023-08-07T01:46:38;24.00;60.60
64718;DHT22;62506;46.070;14.492;2023-08-07T01:49:03;24.00;60.40
64718;DHT22;62506;46.070;14.492;2023-08-07T01:51:29;24.00;60.60
64718;DHT22;62506;46.070;14.492;2023-08-07T01:53:54;24.00;60.50
64718;DHT22;62506;46.070;14.492;2023-08-07T01:56:20;24.00;60.50
64718;DHT22;62506;46.070;14.492;2023-08-07T01:58:45;24.00;60.40
64718;DHT22;62506;46.070;14.492;2023-08-07T02:01:11;24.00;60.40
64718;DHT22;62506;46.070;14.492;2023-08-07T02:03:36;24.00;60.40
64718;DHT22;62506;46.070;14.492;2023-08-07T02:06:02;24.00;60.50
64718;DHT22;62506;46.070;14.492;2023-08-07T02:08:28;24.00;60.50
64718;DHT22;62506;46.070;14.492;2023-08-07T02:10:56;24.00;60.50
64718;DHT22;62506;46.070;14.492;2023-08-07T02:13:22;24.00;60.50
64718;DHT22;62506;46.070;14.492;2023-08-07T02:15:47;24.00;60.50
64718;DHT22;62506;46.070;14.492;2023-08-07T02:18:13;24.00;60.40
64718;DHT22;62506;46.070;14.492;2023-08-07T02:20:38;24.00;60.40
64718;DHT22;62506;46.070;14.492;2023-08-07T02:23:04;24.10;60.40
64718;DHT22;62506;46.070;14.492;2023-08-07T02:25:29;24.00;60.40
64718;DHT22;62506;46.070;14.492;2023-08-07T02:27:55;24.00;60.40
64718;DHT22;62506;46.070;14.492;2023-08-07T02:30:20;24.10;60.60
64718;DHT22;62506;46.070;14.492;2023-08-07T02:32:46;24.00;60.40
64718;DHT22;62506;46.070;14.492;2023-08-07T02:35:12;24.00;60.40
64718;DHT22;62506;46.070;14.492;2023-08-07T02:37:37;24.00;60.40
64718;DHT22;62506;46.070;14.492;2023-08-07T02:40:03;24.00;60.40
64718;DHT22;62506;46.070;14.492;2023-08-07T02:42:29;24.00;60.40
64718;DHT22;62506;46.070;14.492;2023-08-07T02:44:55;24.00;60.40
64718;DHT22;62506;46.070;14.492;2023-08-07T02:47:20;24.00;60.50
64718;DHT22;62506;46.070;14.492;2023-08-07T02:49:46;24.00;60.40
64718;DHT22;62506;46.070;14.492;2023-08-07T02:52:11;24.00;60.50
64718;DHT22;62506;46.070;14.492;2023-08-07T02:54:37;24.00;60.60
64718;DHT22;62506;46.070;14.492;2023-08-07T02:57:02;24.00;60.50
64718;DHT22;62506;46.070;14.492;2023-08-07T02:59:28;24.00;60.60
64718;DHT22;62506;46.070;14.492;2023-08-07T03:01:53;24.00;60.50
64718;DHT22;62506;46.070;14.492;2023-08-07T03:04:19;24.00;60.50
64718;DHT22;62506;46.070;14.492;2023-08-07T03:06:44;24.00;60.40
64718;DHT22;62506;46.070;14.492;2023-08-07T03:09:10;24.00;60.40
64718;DHT22;62506;46.070;14.492;2023-08-07T03:11:36;24.00;60.40
64718;DHT22;62506;46.070;14.492;2023-08-07T03:14:01;24.00;60.30
64718;DHT22;62506;46.070;14.492;2023-08-07T03:16:28;24.00;60.30
64718;DHT22;62506;46.070;14.492;2023-08-07T03:18:54;24.00;60.30
64718;DHT22;62506;46.070;14.492;2023-08-07T03:21:19;24.00;60.30
64718;DHT22;62506;46.070;14.492;2023-08-07T03:23:45;24.00;60.30
64718;DHT22;62506;46.070;14.492;2023-08-07T03:26:11;24.00;60.30
64718;DHT22;62506;46.070;14.492;2023-08-07T03:28:37;24.00;60.30
64718;DHT22;62506;46.070;14.492;2023-08-07T03:31:03;24.00;60.30
64718;DHT22;62506;46.070;14.492;2023-08-07T03:33:28;24.00;60.30
64718;DHT22;62506;46.070;14.492;2023-08-07T03:35:54;24.00;60.30
64718;DHT22;62506;46.070;14.492;2023-08-07T03:38:19;23.90;60.20
64718;DHT22;62506;46.070;14.492;2023-08-07T03:40:45;23.90;60.20
64718;DHT22;62506;46.070;14.492;2023-08-07T03:43:11;23.90;60.20
64718;DHT22;62506;46.070;14.492;2023-08-07T03:45:36;24.00;60.10
64718;DHT22;62506;46.070;14.492;2023-08-07T03:48:02;23.90;60.00
64718;DHT22;62506;46.070;14.492;2023-08-07T03:50:27;24.00;60.10
64718;DHT22;62506;46.070;14.492;2023-08-07T03:52:55;24.00;60.00
64718;DHT22;62506;46.070;14.492;2023-08-07T03:55:20;24.00;60.00
64718;DHT22;62506;46.070;14.492;2023-08-07T03:57:46;24.00;60.00
64718;DHT22;62506;46.070;14.492;2023-08-07T04:00:12;24.00;60.00
64718;DHT22;62506;46.070;14.492;2023-08-07T04:02:37;24.00;60.00
64718;DHT22;62506;46.070;14.492;2023-08-07T04:05:03;24.00;60.00
64718;DHT22;62506;46.070;14.492;2023-08-07T04:07:29;24.00;60.00
64718;DHT22;62506;46.070;14.492;2023-08-07T04:09:54;24.00;60.00
64718;DHT22;62506;46.070;14.492;2023-08-07T04:12:20;24.00;59.80
64718;DHT22;62506;46.070;14.492;2023-08-07T04:14:45;24.00;59.80
64718;DHT22;62506;46.070;14.492;2023-08-07T04:17:11;24.00;60.10
64718;DHT22;62506;46.070;14.492;2023-08-07T04:19:36;24.00;60.40
64718;DHT22;62506;46.070;14.492;2023-08-07T04:22:02;24.00;60.30
64718;DHT22;62506;46.070;14.492;2023-08-07T04:24:28;24.00;60.40
64718;DHT22;62506;46.070;14.492;2023-08-07T04:26:54;24.10;60.40
64718;DHT22;62506;46.070;14.492;2023-08-07T04:29:20;24.10;60.40
64718;DHT22;62506;46.070;14.492;2023-08-07T04:31:46;24.10;60.30
64718;DHT22;62506;46.070;14.492;2023-08-07T04:34:11;24.10;60.60
64718;DHT22;62506;46.070;14.492;2023-08-07T04:36:37;24.10;60.80
64718;DHT22;62506;46.070;14.492;2023-08-07T04:39:03;24.10;60.30
64718;DHT22;62506;46.070;14.492;2023-08-07T04:41:29;24.10;60.30
64718;DHT22;62506;46.070;14.492;2023-08-07T04:43:54;24.10;60.50
64718;DHT22;62506;46.070;14.492;2023-08-07T04:46:20;24.00;60.10
64718;DHT22;62506;46.070;14.492;2023-08-07T04:48:45;24.10;60.00
64718;DHT22;62506;46.070;14.492;2023-08-07T04:51:12;24.20;60.30
64718;DHT22;62506;46.070;14.492;2023-08-07T04:53:37;24.10;60.50
64718;DHT22;62506;46.070;14.492;2023-08-07T04:56:03;24.20;60.60
64718;DHT22;62506;46.070;14.492;2023-08-07T04:58:29;24.10;60.60
64718;DHT22;62506;46.070;14.492;2023-08-07T05:00:57;24.20;61.00
64718;DHT22;62506;46.070;14.492;2023-08-07T05:03:23;24.20;61.10
64718;DHT22;62506;46.070;14.492;2023-08-07T05:05:49;24.20;60.70
64718;DHT22;62506;46.070;14.492;2023-08-07T05:08:14;24.20;60.60
64718;DHT22;62506;46.070;14.492;2023-08-07T05:10:40;24.20;60.50
64718;DHT22;62506;46.070;14.492;2023-08-07T05:13:05;24.20;60.50
64718;DHT22;62506;46.070;14.492;2023-08-07T05:15:31;24.20;60.40
64718;DHT22;62506;46.070;14.492;2023-08-07T05:17:57;24.20;60.30
64718;DHT22;62506;46.070;14.492;2023-08-07T05:20:22;24.20;60.20
64718;DHT22;62506;46.070;14.492;2023-08-07T05:22:48;24.10;60.30
64718;DHT22;62506;46.070;14.492;2023-08-07T05:25:14;24.10;60.30
64718;DHT22;62506;46.070;14.492;2023-08-07T05:27:41;24.20;60.40
64718;DHT22;62506;46.070;14.492;2023-08-07T05:30:07;24.20;60.20
64718;DHT22;62506;46.070;14.492;2023-08-07T05:32:32;24.10;59.90
64718;DHT22;62506;46.070;14.492;2023-08-07T05:34:58;24.10;60.10
64718;DHT22;62506;46.070;14.492;2023-08-07T05:37:23;24.10;60.10
64718;DHT22;62506;46.070;14.492;2023-08-07T05:39:49;24.20;60.00
64718;DHT22;62506;46.070;14.492;2023-08-07T05:42:15;24.20;60.00
64718;DHT22;62506;46.070;14.492;2023-08-07T05:44:40;24.20;60.00
64718;DHT22;62506;46.070;14.492;2023-08-07T05:47:06;24.20;59.40
64718;DHT22;62506;46.070;14.492;2023-08-07T05:49:32;24.00;55.00
64718;DHT22;62506;46.070;14.492;2023-08-07T05:51:57;23.60;53.70
64718;DHT22;62506;46.070;14.492;2023-08-07T05:54:23;23.50;55.40
64718;DHT22;62506;46.070;14.492;2023-08-07T05:56:48;23.60;56.00
64718;DHT22;62506;46.070;14.492;2023-08-07T05:59:14;23.70;56.30
64718;DHT22;62506;46.070;14.492;2023-08-07T06:01:40;23.80;57.00
64718;DHT22;62506;46.070;14.492;2023-08-07T06:04:06;23.90;57.60
64718;DHT22;62506;46.070;14.492;2023-08-07T06:06:32;23.90;57.80
64718;DHT22;62506;46.070;14.492;2023-08-07T06:09:00;23.90;58.10
64718;DHT22;62506;46.070;14.492;2023-08-07T06:11:25;23.90;58.20
64718;DHT22;62506;46.070;14.492;2023-08-07T06:13:51;23.90;58.20
64718;DHT22;62506;46.070;14.492;2023-08-07T06:16:16;24.00;58.40
64718;DHT22;62506;46.070;14.492;2023-08-07T06:18:42;24.00;58.40
64718;DHT22;62506;46.070;14.492;2023-08-07T06:21:08;24.00;58.80
64718;DHT22;62506;46.070;14.492;2023-08-07T06:23:36;24.00;58.70
64718;DHT22;62506;46.070;14.492;2023-08-07T06:26:02;24.00;58.70
64718;DHT22;62506;46.070;14.492;2023-08-07T06:28:32;24.00;58.70
64718;DHT22;62506;46.070;14.492;2023-08-07T06:31:08;24.00;58.80
64718;DHT22;62506;46.070;14.492;2023-08-07T06:33:34;24.00;58.90
64718;DHT22;62506;46.070;14.492;2023-08-07T06:36:00;24.00;58.40
64718;DHT22;62506;46.070;14.492;2023-08-07T06:38:26;24.00;58.80
64718;DHT22;62506;46.070;14.492;2023-08-07T06:40:52;24.10;59.00
64718;DHT22;62506;46.070;14.492;2023-08-07T06:43:17;24.00;58.80
64718;DHT22;62506;46.070;14.492;2023-08-07T06:45:43;24.10;58.90
64718;DHT22;62506;46.070;14.492;2023-08-07T06:48:11;24.10;58.90
64718;DHT22;62506;46.070;14.492;2023-08-07T06:50:37;24.10;59.60
64718;DHT22;62506;46.070;14.492;2023-08-07T06:53:05;24.10;58.80
64718;DHT22;62506;46.070;14.492;2023-08-07T06:55:31;24.10;58.90
64718;DHT22;62506;46.070;14.492;2023-08-07T06:57:59;24.10;58.80
64718;DHT22;62506;46.070;14.492;2023-08-07T07:00:25;24.10;58.80
64718;DHT22;62506;46.070;14.492;2023-08-07T07:02:50;24.10;58.80
64718;DHT22;62506;46.070;14.492;2023-08-07T07:05:16;24.10;58.70
64718;DHT22;62506;46.070;14.492;2023-08-07T07:07:42;24.20;58.60
64718;DHT22;62506;46.070;14.492;2023-08-07T07:10:08;24.30;59.10
64718;DHT22;62506;46.070;14.492;2023-08-07T07:12:33;24.30;58.20
64718;DHT22;62506;46.070;14.492;2023-08-07T07:14:59;24.40;58.20
64718;DHT22;62506;46.070;14.492;2023-08-07T07:17:25;24.40;58.20
64718;DHT22;62506;46.070;14.492;2023-08-07T07:19:50;24.40;58.10
64718;DHT22;62506;46.070;14.492;2023-08-07T07:22:16;24.50;58.00
64718;DHT22;62506;46.070;14.492;2023-08-07T07:24:42;24.50;57.90
64718;DHT22;62506;46.070;14.492;2023-08-07T07:27:07;24.60;57.60
64718;DHT22;62506;46.070;14.492;2023-08-07T07:29:33;24.70;57.40
64718;DHT22;62506;46.070;14.492;2023-08-07T07:31:59;24.80;57.20
64718;DHT22;62506;46.070;14.492;2023-08-07T07:34:24;24.80;57.20
64718;DHT22;62506;46.070;14.492;2023-08-07T07:36:50;24.80;57.10
64718;DHT22;62506;46.070;14.492;2023-08-07T07:39:16;24.90;57.00
64718;DHT22;62506;46.070;14.492;2023-08-07T07:41:42;24.90;57.00
64718;DHT22;62506;46.070;14.492;2023-08-07T07:44:08;25.00;56.80
64718;DHT22;62506;46.070;14.492;2023-08-07T07:46:34;24.90;54.20
64718;DHT22;62506;46.070;14.492;2023-08-07T07:49:00;24.50;50.30
64718;DHT22;62506;46.070;14.492;2023-08-07T07:51:44;24.20;50.20
64718;DHT22;62506;46.070;14.492;2023-08-07T07:54:11;24.00;50.30
64718;DHT22;62506;46.070;14.492;2023-08-07T07:56:37;23.90;50.40
64718;DHT22;62506;46.070;14.492;2023-08-07T07:59:07;23.80;50.50
64718;DHT22;62506;46.070;14.492;2023-08-07T08:01:43;23.70;50.80
64718;DHT22;62506;46.070;14.492;2023-08-07T08:04:09;23.60;51.70
64718;DHT22;62506;46.070;14.492;2023-08-07T08:14:21;23.50;53.00
64718;DHT22;62506;46.070;14.492;2023-08-07T08:16:47;23.40;52.70
64718;DHT22;62506;46.070;14.492;2023-08-07T08:19:12;23.40;53.20
64718;DHT22;62506;46.070;14.492;2023-08-07T08:21:42;23.40;53.50
64718;DHT22;62506;46.070;14.492;2023-08-07T08:24:10;23.30;53.80
64718;DHT22;62506;46.070;14.492;2023-08-07T08:26:36;23.30;53.50
64718;DHT22;62506;46.070;14.492;2023-08-07T08:29:01;23.30;53.50
64718;DHT22;62506;46.070;14.492;2023-08-07T08:31:27;23.20;53.70
64718;DHT22;62506;46.070;14.492;2023-08-07T08:33:53;23.20;53.80
64718;DHT22;62506;46.070;14.492;2023-08-07T08:36:18;23.20;53.60
64718;DHT22;62506;46.070;14.492;2023-08-07T08:38:44;23.20;53.90
64718;DHT22;62506;46.070;14.492;2023-08-07T08:41:12;23.20;54.20
64718;DHT22;62506;46.070;14.492;2023-08-07T08:43:38;23.20;54.80
64718;DHT22;62506;46.070;14.492;2023-08-07T08:46:04;23.20;55.30
64718;DHT22;62506;46.070;14.492;2023-08-07T08:48:30;23.20;55.00
64718;DHT22;62506;46.070;14.492;2023-08-07T08:50:58;23.20;55.20
64718;DHT22;62506;46.070;14.492;2023-08-07T08:53:24;23.20;55.20
64718;DHT22;62506;46.070;14.492;2023-08-07T08:55:50;23.20;55.00
64718;DHT22;62506;46.070;14.492;2023-08-07T08:58:16;23.20;54.60
64718;DHT22;62506;46.070;14.492;2023-08-07T09:00:42;23.20;54.60
64718;DHT22;62506;46.070;14.492;2023-08-07T09:03:08;23.20;54.60
64718;DHT22;62506;46.070;14.492;2023-08-07T09:05:33;23.20;54.70
64718;DHT22;62506;46.070;14.492;2023-08-07T09:08:00;23.20;54.80
64718;DHT22;62506;46.070;14.492;2023-08-07T09:10:26;23.20;55.00
64718;DHT22;62506;46.070;14.492;2023-08-07T09:12:53;23.20;54.70
64718;DHT22;62506;46.070;14.492;2023-08-07T09:15:21;23.20;54.70
64718;DHT22;62506;46.070;14.492;2023-08-07T09:17:47;23.10;55.00
64718;DHT22;62506;46.070;14.492;2023-08-07T09:20:12;23.10;55.20
64718;DHT22;62506;46.070;14.492;2023-08-07T09:22:42;23.10;54.80
64718;DHT22;62506;46.070;14.492;2023-08-07T09:25:08;23.10;54.70
64718;DHT22;62506;46.070;14.492;2023-08-07T09:27:38;23.10;54.70
64718;DHT22;62506;46.070;14.492;2023-08-07T09:30:07;23.20;54.60
64718;DHT22;62506;46.070;14.492;2023-08-07T09:32:35;23.20;54.60
64718;DHT22;62506;46.070;14.492;2023-08-07T09:35:05;23.20;54.70
64718;DHT22;62506;46.070;14.492;2023-08-07T09:37:31;23.10;55.00
64718;DHT22;62506;46.070;14.492;2023-08-07T09:39:59;23.10;55.10
64718;DHT22;62506;46.070;14.492;2023-08-07T09:42:28;23.10;55.10
64718;DHT22;62506;46.070;14.492;2023-08-07T09:44:55;23.10;55.90
64718;DHT22;62506;46.070;14.492;2023-08-07T09:47:21;23.20;55.00
64718;DHT22;62506;46.070;14.492;2023-08-07T09:49:47;23.20;54.40
64718;DHT22;62506;46.070;14.492;2023-08-07T09:52:13;23.20;54.50
64718;DHT22;62506;46.070;14.492;2023-08-07T09:54:40;23.20;54.80
64718;DHT22;62506;46.070;14.492;2023-08-07T09:57:05;23.20;54.90
64718;DHT22;62506;46.070;14.492;2023-08-07T09:59:32;23.20;55.40
64718;DHT22;62506;46.070;14.492;2023-08-07T10:01:58;23.20;55.10
64718;DHT22;62506;46.070;14.492;2023-08-07T10:04:25;23.20;54.90
64718;DHT22;62506;46.070;14.492;2023-08-07T10:06:51;23.20;54.90
64718;DHT22;62506;46.070;14.492;2023-08-07T10:09:17;23.10;55.00
64718;DHT22;62506;46.070;14.492;2023-08-07T10:11:43;23.10;54.30
64718;DHT22;62506;46.070;14.492;2023-08-07T10:14:09;23.10;54.80
64718;DHT22;62506;46.070;14.492;2023-08-07T10:16:35;23.10;54.80
64718;DHT22;62506;46.070;14.492;2023-08-07T10:19:07;23.20;54.80
64718;DHT22;62506;46.070;14.492;2023-08-07T10:21:36;23.10;55.10
64718;DHT22;62506;46.070;14.492;2023-08-07T10:24:03;23.20;55.60
64718;DHT22;62506;46.070;14.492;2023-08-07T10:26:29;23.30;56.10
64718;DHT22;62506;46.070;14.492;2023-08-07T10:28:55;23.30;56.00
64718;DHT22;62506;46.070;14.492;2023-08-07T10:31:21;23.40;56.30
64718;DHT22;62506;46.070;14.492;2023-08-07T10:33:50;23.40;56.40
64718;DHT22;62506;46.070;14.492;2023-08-07T10:36:16;23.50;56.70
64718;DHT22;62506;46.070;14.492;2023-08-07T10:38:42;23.50;56.70
64718;DHT22;62506;46.070;14.492;2023-08-07T10:41:08;23.50;56.80
64718;DHT22;62506;46.070;14.492;2023-08-07T10:43:41;23.50;56.80
64718;DHT22;62506;46.070;14.492;2023-08-07T10:46:11;23.60;57.50
64718;DHT22;62506;46.070;14.492;2023-08-07T10:48:37;23.60;57.00
64718;DHT22;62506;46.070;14.492;2023-08-07T10:51:03;23.60;56.80
64718;DHT22;62506;46.070;14.492;2023-08-07T10:53:34;23.60;56.90
64718;DHT22;62506;46.070;14.492;2023-08-07T10:56:02;23.60;56.90
64718;DHT22;62506;46.070;14.492;2023-08-07T10:58:32;23.70;57.00
64718;DHT22;62506;46.070;14.492;2023-08-07T11:01:17;23.70;57.20
64718;DHT22;62506;46.070;14.492;2023-08-07T11:03:48;23.70;57.20
64718;DHT22;62506;46.070;14.492;2023-08-07T11:06:13;23.70;57.40
64718;DHT22;62506;46.070;14.492;2023-08-07T11:08:40;23.70;57.30
64718;DHT22;62506;46.070;14.492;2023-08-07T11:11:05;23.70;57.40
64718;DHT22;62506;46.070;14.492;2023-08-07T11:13:32;23.70;57.50
64718;DHT22;62506;46.070;14.492;2023-08-07T11:15:58;23.70;57.40
64718;DHT22;62506;46.070;14.492;2023-08-07T11:18:25;23.70;57.40
64718;DHT22;62506;46.070;14.492;2023-08-07T11:20:51;23.70;57.40
64718;DHT22;62506;46.070;14.492;2023-08-07T11:23:18;23.70;57.50
64718;DHT22;62506;46.070;14.492;2023-08-07T11:25:47;23.80;57.60
64718;DHT22;62506;46.070;14.492;2023-08-07T11:28:13;23.80;57.50
64718;DHT22;62506;46.070;14.492;2023-08-07T11:30:39;23.80;57.60
64718;DHT22;62506;46.070;14.492;2023-08-07T11:33:05;23.80;57.80
64718;DHT22;62506;46.070;14.492;2023-08-07T11:35:31;23.80;57.70
64718;DHT22;62506;46.070;14.492;2023-08-07T11:37:56;23.80;57.70
64718;DHT22;62506;46.070;14.492;2023-08-07T11:40:23;23.80;57.70
64718;DHT22;62506;46.070;14.492;2023-08-07T11:42:48;23.80;57.70
64718;DHT22;62506;46.070;14.492;2023-08-07T11:45:14;23.80;57.70
64718;DHT22;62506;46.070;14.492;2023-08-07T11:47:40;23.80;57.80
64718;DHT22;62506;46.070;14.492;2023-08-07T11:50:06;23.80;57.90
64718;DHT22;62506;46.070;14.492;2023-08-07T11:52:32;23.90;57.70
64718;DHT22;62506;46.070;14.492;2023-08-07T11:54:58;23.90;57.70
64718;DHT22;62506;46.070;14.492;2023-08-07T11:57:24;23.80;57.70
64718;DHT22;62506;46.070;14.492;2023-08-07T11:59:50;23.90;57.80
64718;DHT22;62506;46.070;14.492;2023-08-07T12:02:16;23.90;57.90
64718;DHT22;62506;46.070;14.492;2023-08-07T12:04:41;23.90;57.80
64718;DHT22;62506;46.070;14.492;2023-08-07T12:07:07;23.90;57.70
64718;DHT22;62506;46.070;14.492;2023-08-07T12:09:36;23.90;57.80
64718;DHT22;62506;46.070;14.492;2023-08-07T12:12:02;23.90;57.80
64718;DHT22;62506;46.070;14.492;2023-08-07T12:14:31;23.90;57.90
64718;DHT22;62506;46.070;14.492;2023-08-07T12:16:57;23.90;57.90
64718;DHT22;62506;46.070;14.492;2023-08-07T12:19:22;23.90;57.90
64718;DHT22;62506;46.070;14.492;2023-08-07T12:21:48;23.90;58.00
64718;DHT22;62506;46.070;14.492;2023-08-07T12:24:13;23.90;58.10
64718;DHT22;62506;46.070;14.492;2023-08-07T12:26:39;23.90;58.00
64718;DHT22;62506;46.070;14.492;2023-08-07T12:29:05;23.90;58.00
64718;DHT22;62506;46.070;14.492;2023-08-07T12:31:30;23.90;58.00
64718;DHT22;62506;46.070;14.492;2023-08-07T12:33:56;23.90;57.90
64718;DHT22;62506;46.070;14.492;2023-08-07T12:36:22;23.90;57.70
64718;DHT22;62506;46.070;14.492;2023-08-07T12:38:47;23.90;57.70
64718;DHT22;62506;46.070;14.492;2023-08-07T12:41:13;23.90;57.60
64718;DHT22;62506;46.070;14.492;2023-08-07T12:43:39;23.90;57.80
64718;DHT22;62506;46.070;14.492;2023-08-07T12:46:05;23.90;57.80
64718;DHT22;62506;46.070;14.492;2023-08-07T12:48:30;23.90;57.80
64718;DHT22;62506;46.070;14.492;2023-08-07T12:50:56;23.90;57.70
64718;DHT22;62506;46.070;14.492;2023-08-07T12:53:22;23.90;57.70
64718;DHT22;62506;46.070;14.492;2023-08-07T12:55:47;23.80;57.70
64718;DHT22;62506;46.070;14.492;2023-08-07T12:58:13;23.90;57.50
64718;DHT22;62506;46.070;14.492;2023-08-07T13:00:38;23.80;57.40
64718;DHT22;62506;46.070;14.492;2023-08-07T13:03:04;23.90;57.50
64718;DHT22;62506;46.070;14.492;2023-08-07T13:05:29;23.90;57.50
64718;DHT22;62506;46.070;14.492;2023-08-07T13:07:56;23.90;57.30
64718;DHT22;62506;46.070;14.492;2023-08-07T13:10:24;23.90;57.40
64718;DHT22;62506;46.070;14.492;2023-08-07T13:12:49;23.90;57.40
64718;DHT22;62506;46.070;14.492;2023-08-07T13:15:16;23.90;57.40
64718;DHT22;62506;46.070;14.492;2023-08-07T13:17:42;23.90;57.20
64718;DHT22;62506;46.070;14.492;2023-08-07T13:20:08;23.90;57.20
64718;DHT22;62506;46.070;14.492;2023-08-07T13:22:35;23.90;57.20
64718;DHT22;62506;46.070;14.492;2023-08-07T13:25:00;24.00;57.20
64718;DHT22;62506;46.070;14.492;2023-08-07T13:27:29;24.00;57.50
64718;DHT22;62506;46.070;14.492;2023-08-07T13:29:54;24.00;57.60
64718;DHT22;62506;46.070;14.492;2023-08-07T13:32:20;24.00;57.10
64718;DHT22;62506;46.070;14.492;2023-08-07T13:34:45;23.90;53.50
64718;DHT22;62506;46.070;14.492;2023-08-07T13:37:11;23.80;51.40
64718;DHT22;62506;46.070;14.492;2023-08-07T13:39:37;23.70;51.30
64718;DHT22;62506;46.070;14.492;2023-08-07T13:42:02;23.60;51.40
64718;DHT22;62506;46.070;14.492;2023-08-07T13:44:28;23.60;51.30
64718;DHT22;62506;46.070;14.492;2023-08-07T13:46:56;23.50;51.10
64718;DHT22;62506;46.070;14.492;2023-08-07T13:49:22;23.50;51.30
64718;DHT22;62506;46.070;14.492;2023-08-07T13:51:49;23.50;51.20
64718;DHT22;62506;46.070;14.492;2023-08-07T13:54:14;23.50;51.40
64718;DHT22;62506;46.070;14.492;2023-08-07T13:56:40;23.50;52.20
64718;DHT22;62506;46.070;14.492;2023-08-07T13:59:05;23.50;52.40
64718;DHT22;62506;46.070;14.492;2023-08-07T14:01:31;23.50;51.80
64718;DHT22;62506;46.070;14.492;2023-08-07T14:03:58;23.50;52.10
64718;DHT22;62506;46.070;14.492;2023-08-07T14:06:24;23.40;52.20
64718;DHT22;62506;46.070;14.492;2023-08-07T14:08:49;23.40;51.90
64718;DHT22;62506;46.070;14.492;2023-08-07T14:11:15;23.30;52.00
64718;DHT22;62506;46.070;14.492;2023-08-07T14:13:41;23.30;52.50
64718;DHT22;62506;46.070;14.492;2023-08-07T14:16:07;23.40;53.10
64718;DHT22;62506;46.070;14.492;2023-08-07T14:18:32;23.50;54.20
64718;DHT22;62506;46.070;14.492;2023-08-07T14:20:58;23.50;54.00
64718;DHT22;62506;46.070;14.492;2023-08-07T14:23:24;23.60;54.30
64718;DHT22;62506;46.070;14.492;2023-08-07T14:25:49;23.70;54.50
64718;DHT22;62506;46.070;14.492;2023-08-07T14:28:16;23.70;55.00
64718;DHT22;62506;46.070;14.492;2023-08-07T14:30:42;23.80;55.20
64718;DHT22;62506;46.070;14.492;2023-08-07T14:33:07;23.80;55.70
64718;DHT22;62506;46.070;14.492;2023-08-07T14:35:33;23.90;55.00
64718;DHT22;62506;46.070;14.492;2023-08-07T14:37:58;24.00;54.90
64718;DHT22;62506;46.070;14.492;2023-08-07T14:40:24;24.00;54.90
64718;DHT22;62506;46.070;14.492;2023-08-07T14:42:50;24.00;54.90
64718;DHT22;62506;46.070;14.492;2023-08-07T14:45:15;24.10;55.10
64718;DHT22;62506;46.070;14.492;2023-08-07T14:47:42;24.20;55.40
64718;DHT22;62506;46.070;14.492;2023-08-07T14:50:08;24.20;55.10
64718;DHT22;62506;46.070;14.492;2023-08-07T14:52:34;24.20;55.50
64718;DHT22;62506;46.070;14.492;2023-08-07T14:54:59;24.20;55.60
64718;DHT22;62506;46.070;14.492;2023-08-07T14:57:26;24.30;55.70
64718;DHT22;62506;46.070;14.492;2023-08-07T14:59:52;24.60;56.00
64718;DHT22;62506;46.070;14.492;2023-08-07T15:02:17;24.60;55.40
64718;DHT22;62506;46.070;14.492;2023-08-07T15:04:43;24.60;55.60
64718;DHT22;62506;46.070;14.492;2023-08-07T15:07:08;24.60;55.70
64718;DHT22;62506;46.070;14.492;2023-08-07T15:09:34;24.60;56.70
64718;DHT22;62506;46.070;14.492;2023-08-07T15:12:00;24.70;57.20
64718;DHT22;62506;46.070;14.492;2023-08-07T15:14:25;24.80;57.00
64718;DHT22;62506;46.070;14.492;2023-08-07T15:16:51;24.70;52.80
64718;DHT22;62506;46.070;14.492;2023-08-07T15:19:16;24.40;51.00